createdAt,value
2022-09-23T00:27:22.704Z,8
2022-09-23T00:55:47.824Z,7
2022-09-23T01:24:20.423Z,7
2022-09-23T01:52:54.133Z,7
2022-09-23T02:21:34.433Z,7
2022-09-23T02:50:18.976Z,6
2022-09-23T03:47:22.507Z,6
2022-09-23T04:16:00.861Z,6
2022-09-23T04:44:34.818Z,6
2022-09-23T05:12:57.725Z,7
2022-09-23T05:41:34.888Z,7
2022-09-23T06:10:01.716Z,8
2022-09-23T06:38:38.335Z,7
2022-09-23T07:07:07.878Z,8
2022-09-23T07:35:43.452Z,10
2022-09-23T08:04:16.325Z,12
2022-09-23T08:33:41.952Z,11
2022-09-23T09:01:38.762Z,10
2022-09-23T09:29:59.902Z,10
2022-09-23T09:58:39.427Z,9
2022-09-23T10:27:50.730Z,8
2022-09-23T10:56:01.083Z,8
2022-09-23T11:24:34.051Z,10
2022-09-23T11:52:50.297Z,10
2022-09-23T12:21:46.147Z,10
2022-09-23T12:49:49.511Z,10
2022-09-23T13:19:47.977Z,8
2022-09-23T13:47:34.569Z,7
2022-09-23T14:16:02.886Z,8
2022-09-23T14:44:25.274Z,8
2022-09-23T15:12:57.253Z,8
2022-09-23T15:41:32.529Z,10
2022-09-23T16:09:54.965Z,11
2022-09-23T18:55:11.562Z,13
2022-09-23T20:03:01.374Z,13
2022-09-23T21:08:23.483Z,13
2022-09-23T21:56:56.160Z,13
2022-09-23T22:32:20.376Z,12
2022-09-23T23:04:38.657Z,13
2022-09-23T23:32:08.586Z,12
